Time;durP1;ratioP1;P1;durP2;ratioP2;P2;SDS_P1;SDS_P2;PMS_P1;PMS_P2;Temp;Humidity;BMP_temperature;BMP_pressure;BME280_temperature;BME280_humidity;BME280_pressure;Samples;Min_cycle;Max_cycle;Signal;HPM_P1;HPM_P2
2023/10/20 00:01:17;;;;;;;3.73;2.60;;;22.00;99.60;;;;;;5019090;28;20474;-62
2023/10/20 00:03:43;;;;;;;5.70;3.50;;;22.00;99.60;;;;;;5019957;28;20834;-62
2023/10/20 00:06:10;;;;;;;5.07;2.77;;;21.90;99.50;;;;;;5015873;28;20471;-63
2023/10/20 00:08:37;;;;;;;11.23;3.17;;;21.90;99.50;;;;;;5018551;28;20498;-62
2023/10/20 00:11:04;;;;;;;5.13;2.97;;;21.90;99.50;;;;;;5016921;28;21234;-62
2023/10/20 00:13:34;;;;;;;6.60;3.03;;;21.90;99.50;;;;;;5018549;28;20585;-63
2023/10/20 00:16:01;;;;;;;4.10;2.93;;;21.90;99.50;;;;;;5018876;28;21151;-62
2023/10/20 00:18:27;;;;;;;3.90;3.00;;;21.90;99.50;;;;;;5018787;28;20465;-62
2023/10/20 00:20:54;;;;;;;3.30;2.83;;;21.90;99.50;;;;;;5018110;28;20474;-62
2023/10/20 00:23:21;;;;;;;4.60;2.47;;;21.90;99.50;;;;;;5019415;28;21350;-62
2023/10/20 00:25:48;;;;;;;5.90;3.60;;;21.90;99.50;;;;;;5021350;28;20453;-62
2023/10/20 00:28:14;;;;;;;5.60;3.43;;;21.90;99.50;;;;;;5016224;28;20457;-63
2023/10/20 00:30:43;;;;;;;3.27;2.53;;;21.80;99.40;;;;;;5017255;28;20467;-63
2023/10/20 00:33:09;;;;;;;3.90;2.50;;;21.80;99.50;;;;;;5021267;28;20921;-63
2023/10/20 00:35:36;;;;;;;3.47;2.47;;;21.80;99.40;;;;;;5019143;28;20996;-62
2023/10/20 00:38:03;;;;;;;7.20;3.10;;;21.80;99.40;;;;;;5018588;28;20572;-63
2023/10/20 00:40:30;;;;;;;5.80;3.07;;;21.80;99.50;;;;;;5019262;28;20470;-63
2023/10/20 00:42:57;;;;;;;3.93;3.17;;;21.80;99.40;;;;;;5022367;28;20463;-62
2023/10/20 00:45:24;;;;;;;3.83;2.70;;;21.80;99.40;;;;;;5016690;28;20465;-62
2023/10/20 00:47:52;;;;;;;4.77;2.80;;;21.80;99.40;;;;;;5020015;28;20468;-62
2023/10/20 00:50:19;;;;;;;4.30;2.43;;;21.80;99.50;;;;;;5014108;28;20584;-62
2023/10/20 00:52:50;;;;;;;4.80;2.93;;;21.80;99.50;;;;;;5019576;28;20954;-62
2023/10/20 00:55:18;;;;;;;4.53;2.80;;;21.70;99.40;;;;;;5017856;28;20462;-63
2023/10/20 00:57:45;;;;;;;5.77;2.23;;;21.70;99.40;;;;;;5021669;28;20458;-62
2023/10/20 01:00:16;;;;;;;5.00;2.33;;;21.80;99.50;;;;;;5015291;28;21013;-62
2023/10/20 01:02:43;;;;;;;4.90;2.73;;;21.70;99.40;;;;;;5034324;22;20763;-63
2023/10/20 01:05:14;;;;;;;3.70;2.30;;;21.70;99.40;;;;;;5019664;28;20458;-63
2023/10/20 01:07:41;;;;;;;3.90;3.07;;;21.70;99.40;;;;;;5019765;28;20465;-61
2023/10/20 01:10:09;;;;;;;4.33;2.60;;;21.80;99.50;;;;;;5015818;28;20477;-61
2023/10/20 01:12:36;;;;;;;3.27;2.07;;;21.70;99.50;;;;;;5019612;28;20462;-61
2023/10/20 01:15:05;;;;;;;3.60;2.33;;;21.60;99.40;;;;;;5014376;28;20540;-61
2023/10/20 01:17:32;;;;;;;3.43;2.13;;;21.70;99.40;;;;;;5018831;28;21443;-65
2023/10/20 01:20:03;;;;;;;3.40;2.63;;;21.70;99.80;;;;;;5018191;28;20489;-61
2023/10/20 01:22:31;;;;;;;4.30;2.87;;;21.70;99.40;;;;;;5020225;28;20465;-62
2023/10/20 01:24:59;;;;;;;3.60;2.33;;;21.70;99.50;;;;;;5016173;28;20561;-63
2023/10/20 01:27:26;;;;;;;5.67;2.20;;;21.70;99.40;;;;;;5016978;28;20460;-62
2023/10/20 01:29:53;;;;;;;5.00;2.33;;;21.60;99.40;;;;;;5021863;28;20465;-63
2023/10/20 01:32:19;;;;;;;4.43;2.50;;;21.70;99.40;;;;;;5018334;28;20473;-63
2023/10/20 01:34:46;;;;;;;6.20;2.37;;;21.60;99.40;;;;;;5021871;28;20466;-62
2023/10/20 01:37:13;;;;;;;3.23;2.27;;;21.60;99.30;;;;;;5018962;28;20594;-63
2023/10/20 01:39:39;;;;;;;3.97;2.10;;;21.60;99.30;;;;;;5021674;28;20470;-61
2023/10/20 01:42:08;;;;;;;4.40;2.17;;;21.60;99.40;;;;;;5020104;28;20466;-63
2023/10/20 01:44:35;;;;;;;2.63;1.83;;;21.60;99.40;;;;;;5019080;28;20570;-63
2023/10/20 01:47:01;;;;;;;2.30;1.87;;;21.60;99.40;;;;;;5019152;28;20453;-62
2023/10/20 01:49:29;;;;;;;2.93;2.17;;;21.60;99.40;;;;;;5014621;28;24405;-62
2023/10/20 01:51:55;;;;;;;3.90;2.50;;;21.50;99.30;;;;;;5018514;28;20501;-62
2023/10/20 01:54:22;;;;;;;3.40;2.33;;;21.60;99.40;;;;;;5019946;28;20457;-62
2023/10/20 01:56:49;;;;;;;3.20;2.37;;;21.60;99.40;;;;;;5018800;28;20469;-63
2023/10/20 01:59:17;;;;;;;2.97;1.60;;;21.50;99.40;;;;;;5016334;28;20576;-62
2023/10/20 02:01:44;;;;;;;2.13;1.83;;;21.50;99.40;;;;;;5019294;28;20480;-62
2023/10/20 02:04:10;;;;;;;4.90;2.63;;;21.50;99.30;;;;;;5020810;28;20612;-62
2023/10/20 02:06:37;;;;;;;2.80;2.20;;;21.50;99.30;;;;;;5020017;28;20468;-62
2023/10/20 02:09:06;;;;;;;3.03;2.30;;;21.50;99.40;;;;;;5018759;28;20789;-63
2023/10/20 02:11:32;;;;;;;4.10;2.57;;;21.50;99.40;;;;;;5016612;28;20461;-62
2023/10/20 02:13:59;;;;;;;3.83;2.30;;;21.50;99.40;;;;;;5018038;28;20462;-62
2023/10/20 02:16:27;;;;;;;4.17;2.60;;;21.50;99.40;;;;;;5017290;28;20944;-62
2023/10/20 02:18:54;;;;;;;3.33;2.10;;;21.50;99.40;;;;;;5015337;28;20465;-62
2023/10/20 02:21:20;;;;;;;3.42;2.50;;;21.50;99.40;;;;;;5017377;28;20508;-61
2023/10/20 02:23:47;;;;;;;3.30;2.20;;;21.50;99.40;;;;;;5019294;28;20208;-62
2023/10/20 02:26:14;;;;;;;3.13;2.60;;;21.50;99.40;;;;;;5016469;28;21093;-62
2023/10/20 02:28:41;;;;;;;2.33;1.80;;;21.40;99.40;;;;;;5018733;28;20515;-62
2023/10/20 02:31:12;;;;;;;4.20;2.53;;;21.40;99.40;;;;;;5013312;28;20947;-61
2023/10/20 02:33:41;;;;;;;2.30;1.97;;;21.40;99.40;;;;;;5018667;28;20462;-63
2023/10/20 02:36:07;;;;;;;2.73;2.07;;;21.40;99.40;;;;;;5015734;28;20822;-63
2023/10/20 02:38:34;;;;;;;5.80;2.47;;;21.50;99.50;;;;;;5015445;28;20874;-63
2023/10/20 02:41:03;;;;;;;3.22;1.83;;;21.40;99.40;;;;;;5017453;28;20824;-62
2023/10/20 02:43:31;;;;;;;3.05;2.28;;;21.40;99.40;;;;;;5018884;28;21730;-62
2023/10/20 02:45:58;;;;;;;3.60;2.37;;;21.40;99.40;;;;;;5015103;28;20199;-62
2023/10/20 02:48:25;;;;;;;4.50;2.40;;;21.40;99.40;;;;;;5017572;28;20588;-62
2023/10/20 02:50:53;;;;;;;2.93;2.50;;;21.40;99.40;;;;;;5015868;28;20477;-62
2023/10/20 02:53:20;;;;;;;2.23;1.93;;;21.40;99.40;;;;;;5016874;28;20458;-63
2023/10/20 02:55:47;;;;;;;4.30;2.90;;;21.40;99.40;;;;;;5009324;28;21043;-62
2023/10/20 02:58:14;;;;;;;3.57;1.90;;;21.40;99.50;;;;;;5018635;28;20490;-62
2023/10/20 03:00:42;;;;;;;4.07;2.17;;;21.50;99.50;;;;;;5013372;28;20516;-62
2023/10/20 03:03:10;;;;;;;3.05;2.20;;;21.40;99.40;;;;;;5018720;28;20214;-62
2023/10/20 03:05:37;;;;;;;2.53;1.90;;;21.40;99.40;;;;;;5016388;28;20195;-62
2023/10/20 03:08:06;;;;;;;2.43;2.10;;;21.40;99.40;;;;;;5019574;28;20473;-63
2023/10/20 03:10:33;;;;;;;3.70;2.55;;;21.40;99.40;;;;;;5022293;28;21003;-62
2023/10/20 03:12:59;;;;;;;2.43;2.23;;;21.40;99.50;;;;;;5021746;28;20191;-62
2023/10/20 03:15:26;;;;;;;2.80;2.20;;;21.30;99.40;;;;;;5017692;28;21099;-62
2023/10/20 03:17:53;;;;;;;2.80;1.90;;;21.50;99.60;;;;;;5024061;28;20462;-62
2023/10/20 03:20:24;;;;;;;3.60;2.07;;;21.30;99.40;;;;;;5018931;28;21675;-62
2023/10/20 03:22:52;;;;;;;3.57;2.77;;;21.30;99.40;;;;;;5020691;28;21051;-62
2023/10/20 03:25:20;;;;;;;3.33;2.40;;;21.40;99.50;;;;;;5018918;28;20891;-62
2023/10/20 03:27:47;;;;;;;2.33;1.90;;;21.30;99.50;;;;;;5022334;28;20458;-63
2023/10/20 03:30:15;;;;;;;2.93;2.37;;;21.50;99.60;;;;;;5017568;28;20462;-62
2023/10/20 03:32:41;;;;;;;2.93;2.57;;;21.30;99.50;;;;;;5016700;28;20842;-62
2023/10/20 03:35:09;;;;;;;2.08;1.70;;;21.30;99.50;;;;;;5019000;28;20471;-63
2023/10/20 03:37:38;;;;;;;3.00;1.83;;;21.30;99.50;;;;;;5019419;28;20200;-61
2023/10/20 03:40:05;;;;;;;4.63;2.70;;;21.30;99.50;;;;;;5021020;28;20461;-62
2023/10/20 03:42:33;;;;;;;2.33;2.00;;;21.30;99.50;;;;;;5021757;28;21289;-63
2023/10/20 03:45:00;;;;;;;3.20;2.20;;;21.30;99.60;;;;;;5022130;28;20738;-64
2023/10/20 03:47:31;;;;;;;3.10;1.57;;;21.30;99.50;;;;;;5016091;28;20461;-62
2023/10/20 03:50:00;;;;;;;2.60;1.83;;;21.30;99.50;;;;;;5019141;28;20593;-62
2023/10/20 03:52:28;;;;;;;3.33;1.87;;;21.30;99.50;;;;;;5022042;28;20569;-63
2023/10/20 03:54:55;;;;;;;2.70;2.03;;;21.30;99.50;;;;;;5017839;28;20565;-61
2023/10/20 03:57:21;;;;;;;2.53;1.83;;;21.20;99.40;;;;;;5022086;28;20462;-63
2023/10/20 03:59:49;;;;;;;2.10;1.90;;;21.20;99.40;;;;;;5020525;28;20970;-62
2023/10/20 04:02:16;;;;;;;2.60;2.08;;;21.20;99.50;;;;;;5015719;28;20808;-63
2023/10/20 04:04:43;;;;;;;2.83;2.47;;;21.30;99.50;;;;;;5018940;28;20191;-62
2023/10/20 04:07:09;;;;;;;2.30;2.05;;;21.20;99.40;;;;;;5018144;28;20194;-62
2023/10/20 04:09:38;;;;;;;1.90;1.60;;;21.20;99.50;;;;;;5020298;28;20206;-61
2023/10/20 04:12:05;;;;;;;2.97;2.35;;;21.30;99.50;;;;;;5017272;28;20469;-63
2023/10/20 04:14:34;;;;;;;2.30;2.10;;;21.10;99.40;;;;;;5019029;28;20199;-62
2023/10/20 04:17:03;;;;;;;2.97;2.10;;;21.20;99.50;;;;;;5018029;28;20199;-63
2023/10/20 04:19:29;;;;;;;2.85;2.05;;;21.20;99.50;;;;;;5020231;28;20595;-62
2023/10/20 04:21:58;;;;;;;2.30;2.07;;;21.20;99.50;;;;;;5019320;28;20215;-62
2023/10/20 04:24:24;;;;;;;3.00;2.17;;;21.20;99.50;;;;;;5017631;28;20451;-63
2023/10/20 04:26:52;;;;;;;2.25;2.05;;;21.30;99.60;;;;;;5015348;28;20203;-61
2023/10/20 04:29:34;;;;;;;4.03;2.17;;;21.30;99.60;;;;;;5019023;28;20188;-61
2023/10/20 04:51:22;;;;;;;2.58;2.38;;;21.10;99.50;;;;;;5014579;28;20531;-62
2023/10/20 04:53:53;;;;;;;3.13;2.30;;;21.10;99.50;;;;;;5019078;28;20199;-62
2023/10/20 04:56:32;;;;;;;3.73;2.70;;;21.20;99.60;;;;;;5013444;28;20710;-63
2023/10/20 04:59:04;;;;;;;2.45;2.00;;;21.20;99.60;;;;;;5016355;28;21152;-63
2023/10/20 05:01:40;;;;;;;2.53;1.95;;;21.10;99.50;;;;;;5010244;28;20269;-63
2023/10/20 05:04:14;;;;;;;1.73;1.63;;;21.10;99.50;;;;;;5019049;28;20203;-63
2023/10/20 05:06:43;;;;;;;3.67;2.30;;;21.10;99.50;;;;;;5015915;28;20825;-63
2023/10/20 05:09:13;;;;;;;3.05;2.17;;;21.10;99.50;;;;;;5013113;28;20203;-62
2023/10/20 05:11:40;;;;;;;2.73;2.27;;;21.10;99.50;;;;;;5017706;28;20205;-61
2023/10/20 05:14:07;;;;;;;2.57;1.93;;;21.10;99.50;;;;;;5019192;28;20460;-62
2023/10/20 05:16:34;;;;;;;2.85;2.35;;;21.10;99.50;;;;;;5015275;28;20560;-62
2023/10/20 05:19:03;;;;;;;2.97;2.25;;;21.10;99.50;;;;;;5016733;28;20246;-62
2023/10/20 05:21:33;;;;;;;2.67;2.47;;;21.10;99.50;;;;;;5015191;28;20277;-63
2023/10/20 05:24:03;;;;;;;3.15;2.03;;;21.10;99.50;;;;;;5018632;28;20200;-63
2023/10/20 05:26:30;;;;;;;2.30;2.03;;;21.10;99.50;;;;;;5016162;28;20233;-63
2023/10/20 05:28:57;;;;;;;2.15;1.60;;;21.00;99.50;;;;;;5016054;28;20201;-62
2023/10/20 05:31:25;;;;;;;1.90;1.70;;;21.10;99.50;;;;;;5013473;28;20203;-63
2023/10/20 05:33:52;;;;;;;2.30;2.10;;;21.10;99.60;;;;;;5015623;28;20233;-62
2023/10/20 05:36:19;;;;;;;4.53;2.43;;;21.10;99.60;;;;;;5016845;28;20204;-62
2023/10/20 05:38:48;;;;;;;2.10;1.55;;;21.00;99.50;;;;;;5017691;28;20566;-63
2023/10/20 05:41:15;;;;;;;1.80;1.60;;;21.10;99.60;;;;;;5012772;28;20219;-62
2023/10/20 05:43:42;;;;;;;2.53;2.10;;;21.10;99.60;;;;;;5015369;28;20206;-62
2023/10/20 05:46:15;;;;;;;2.67;1.80;;;21.00;99.60;;;;;;5015664;28;20207;-63
2023/10/20 05:48:42;;;;;;;2.40;2.10;;;21.00;99.80;;;;;;5021651;28;20470;-62
2023/10/20 05:51:09;;;;;;;2.00;1.67;;;21.00;99.50;;;;;;5014675;28;20467;-63
2023/10/20 05:53:36;;;;;;;3.58;2.03;;;21.00;99.50;;;;;;5018955;28;20206;-64
2023/10/20 05:56:04;;;;;;;3.05;1.75;;;21.00;99.60;;;;;;5018506;28;20365;-62
2023/10/20 05:58:32;;;;;;;2.37;2.10;;;21.00;99.60;;;;;;5017374;28;20944;-64
2023/10/20 06:01:05;;;;;;;3.45;2.00;;;21.00;99.60;;;;;;5019679;28;20458;-62
2023/10/20 06:03:31;;;;;;;2.42;1.60;;;21.10;99.60;;;;;;5013843;28;20377;-68
2023/10/20 06:06:00;;;;;;;2.23;1.70;;;21.00;99.60;;;;;;5016390;28;20352;-64
2023/10/20 06:08:28;;;;;;;2.50;2.15;;;21.00;99.60;;;;;;5020436;28;20489;-61
2023/10/20 06:10:55;;;;;;;2.50;2.10;;;21.00;99.60;;;;;;5019077;28;20196;-62
2023/10/20 06:13:23;;;;;;;2.70;1.90;;;21.00;99.60;;;;;;5017693;28;20576;-63
2023/10/20 06:15:50;;;;;;;2.22;1.70;;;21.00;99.60;;;;;;5017235;28;20481;-63
2023/10/20 06:18:17;;;;;;;2.45;1.88;;;21.00;99.60;;;;;;5021909;28;20192;-61
2023/10/20 06:20:44;;;;;;;2.00;1.80;;;20.90;99.60;;;;;;5017749;28;20190;-63
2023/10/20 06:23:11;;;;;;;2.90;1.80;;;21.00;99.60;;;;;;5012665;28;20960;-64
2023/10/20 06:25:38;;;;;;;2.30;1.90;;;21.00;99.60;;;;;;5016568;28;20187;-63
2023/10/20 06:28:06;;;;;;;3.05;1.75;;;21.10;99.70;;;;;;5016064;28;20191;-63
2023/10/20 06:30:42;;;;;;;2.75;1.70;;;21.10;99.70;;;;;;5016732;28;20251;-63
2023/10/20 06:33:16;;;;;;;3.22;1.77;;;21.00;99.70;;;;;;5014590;28;20233;-63
2023/10/20 06:35:50;;;;;;;1.90;1.60;;;21.00;99.80;;;;;;5012107;28;20217;-62
2023/10/20 06:38:19;;;;;;;2.50;2.00;;;21.00;99.90;;;;;;5019132;28;20682;-63
2023/10/20 06:40:47;;;;;;;2.20;2.00;;;21.00;99.90;;;;;;5017206;28;20519;-62
2023/10/20 06:43:16;;;;;;;2.30;1.90;;;21.10;99.90;;;;;;5016170;28;20223;-61
2023/10/20 06:45:44;;;;;;;2.60;2.03;;;21.00;99.90;;;;;;5018732;28;20468;-62
2023/10/20 06:48:11;;;;;;;1.83;1.60;;;21.10;99.90;;;;;;5017501;28;20668;-61
2023/10/20 06:50:37;;;;;;;1.88;1.70;;;21.00;99.90;;;;;;5018844;28;20813;-61
2023/10/20 06:53:04;;;;;;;2.65;1.55;;;21.00;99.90;;;;;;5017078;28;20195;-61
2023/10/20 06:55:31;;;;;;;2.13;1.70;;;21.10;99.90;;;;;;5019781;28;20219;-61
2023/10/20 06:57:58;;;;;;;2.37;1.60;;;21.10;99.90;;;;;;5022040;28;20580;-61
2023/10/20 07:00:26;;;;;;;1.40;1.20;;;21.10;99.90;;;;;;5017008;28;20457;-61
2023/10/20 07:02:54;;;;;;;2.27;1.80;;;21.10;99.90;;;;;;5015129;28;20481;-60
2023/10/20 07:05:23;;;;;;;2.03;1.65;;;21.20;99.90;;;;;;5016851;28;20795;-60
2023/10/20 07:07:50;;;;;;;1.97;1.70;;;21.20;99.90;;;;;;4842142;28;20730;-60
2023/10/20 07:10:20;;;;;;;1.47;1.37;;;21.30;99.90;;;;;;4751104;28;25832;-61
2023/10/20 07:12:47;;;;;;;3.40;1.90;;;21.20;99.90;;;;;;4750254;28;21444;-60
2023/10/20 07:15:15;;;;;;;1.70;1.30;;;21.20;99.90;;;;;;4790466;28;20493;-60
2023/10/20 07:17:43;;;;;;;1.60;1.30;;;21.20;99.90;;;;;;4796283;28;20449;-60
2023/10/20 07:20:14;;;;;;;2.93;1.70;;;21.30;99.90;;;;;;4788785;28;22531;-60
2023/10/20 07:22:42;;;;;;;4.67;2.27;;;21.30;99.90;;;;;;4794624;28;21221;-60
2023/10/20 07:25:09;;;;;;;1.60;1.50;;;21.30;99.90;;;;;;4795779;28;20456;-60
2023/10/20 07:27:36;;;;;;;2.20;1.70;;;21.30;99.90;;;;;;4795297;28;26836;-60
2023/10/20 07:30:06;;;;;;;3.63;2.40;;;21.30;99.90;;;;;;4787851;28;20468;-61
2023/10/20 07:32:34;;;;;;;1.97;1.80;;;21.40;99.90;;;;;;4802083;28;21013;-60
2023/10/20 07:35:02;;;;;;;1.97;1.87;;;21.40;99.90;;;;;;4791904;28;21027;-61
2023/10/20 07:37:31;;;;;;;1.57;1.40;;;21.40;99.90;;;;;;4782625;28;21078;-60
2023/10/20 07:39:59;;;;;;;2.47;1.80;;;21.30;99.90;;;;;;4797839;28;22081;-61
2023/10/20 07:42:26;;;;;;;2.83;1.87;;;21.40;99.90;;;;;;4793786;28;21245;-61
2023/10/20 07:44:53;;;;;;;2.40;1.60;;;21.40;99.90;;;;;;4804754;28;20465;-60
2023/10/20 07:47:20;;;;;;;2.03;1.67;;;21.40;99.90;;;;;;4800230;28;26257;-61
2023/10/20 07:49:47;;;;;;;2.53;2.23;;;21.40;99.90;;;;;;4801268;28;21142;-61
2023/10/20 07:52:16;;;;;;;3.07;2.03;;;21.50;99.90;;;;;;4795967;28;28423;-60
2023/10/20 07:54:44;;;;;;;2.73;1.53;;;21.40;99.90;;;;;;4970353;28;20556;-62
2023/10/20 07:57:12;;;;;;;1.73;1.57;;;21.50;99.90;;;;;;5020369;28;21740;-60
2023/10/20 07:59:39;;;;;;;2.20;1.60;;;21.50;99.90;;;;;;5022856;28;20592;-60
2023/10/20 08:02:07;;;;;;;2.70;1.93;;;21.50;99.90;;;;;;5015939;28;20489;-61
2023/10/20 08:04:33;;;;;;;2.20;1.70;;;21.50;99.90;;;;;;5019673;28;20480;-61
2023/10/20 08:07:00;;;;;;;2.33;1.57;;;21.40;99.90;;;;;;5019861;28;20461;-61
2023/10/20 08:09:27;;;;;;;2.10;1.70;;;21.50;99.90;;;;;;5022216;28;20449;-63
2023/10/20 08:11:56;;;;;;;2.00;1.37;;;21.50;99.90;;;;;;5018682;28;20772;-63
2023/10/20 08:14:26;;;;;;;2.43;1.43;;;21.50;99.90;;;;;;5017123;28;20454;-62
2023/10/20 08:16:52;;;;;;;2.50;1.67;;;21.50;99.90;;;;;;5020699;28;20453;-62
2023/10/20 08:19:19;;;;;;;1.63;1.40;;;21.50;99.90;;;;;;5016633;28;20468;-60
2023/10/20 08:21:46;;;;;;;1.70;1.60;;;21.50;99.90;;;;;;5020327;28;20458;-61
2023/10/20 08:24:13;;;;;;;3.70;1.90;;;21.50;99.90;;;;;;5020371;28;21281;-62
2023/10/20 08:26:41;;;;;;;2.10;1.90;;;21.50;99.90;;;;;;5018193;28;20457;-62
2023/10/20 08:29:11;;;;;;;1.70;1.60;;;21.50;99.90;;;;;;5019786;28;21132;-61
2023/10/20 08:31:38;;;;;;;8.50;1.80;;;21.60;99.90;;;;;;5019749;28;20452;-62
2023/10/20 08:34:05;;;;;;;8.70;2.77;;;21.50;99.90;;;;;;5016802;28;20837;-67
2023/10/20 08:36:32;;;;;;;2.20;1.87;;;21.60;99.90;;;;;;5011184;28;20468;-65
2023/10/20 08:39:01;;;;;;;2.37;1.87;;;21.60;99.90;;;;;;5021105;28;21818;-70
2023/10/20 08:41:28;;;;;;;4.10;1.63;;;21.60;99.90;;;;;;5018964;28;20461;-70
2023/10/20 08:43:56;;;;;;;1.73;1.33;;;21.60;99.90;;;;;;5018561;28;20484;-69
2023/10/20 08:46:25;;;;;;;1.70;1.60;;;21.80;99.90;;;;;;5018777;28;21034;-69
2023/10/20 08:48:54;;;;;;;3.23;1.53;;;21.70;99.90;;;;;;5019693;28;21268;-71
2023/10/20 08:51:22;;;;;;;5.03;1.50;;;21.70;99.90;;;;;;5013426;28;20957;-64
2023/10/20 08:53:49;;;;;;;2.93;1.63;;;21.70;99.90;;;;;;5018308;28;20466;-64
2023/10/20 08:56:16;;;;;;;3.50;1.70;;;21.60;99.90;;;;;;5017187;28;20966;-64
2023/10/20 08:58:45;;;;;;;3.57;1.60;;;21.80;99.90;;;;;;5012405;28;20465;-63
2023/10/20 09:01:12;;;;;;;2.80;1.63;;;21.70;99.90;;;;;;5016490;28;20466;-61
2023/10/20 09:03:41;;;;;;;1.67;1.57;;;21.70;99.90;;;;;;5015510;28;20484;-65
2023/10/20 09:06:11;;;;;;;2.93;1.53;;;21.70;99.90;;;;;;5013794;28;20462;-63
2023/10/20 09:08:38;;;;;;;3.27;1.40;;;21.70;99.90;;;;;;5017249;28;21357;-64
2023/10/20 09:11:07;;;;;;;6.13;2.43;;;21.80;99.90;;;;;;5013874;28;20454;-66
2023/10/20 09:13:36;;;;;;;2.00;1.20;;;21.80;99.90;;;;;;5018790;28;20470;-65
2023/10/20 09:16:07;;;;;;;2.23;1.80;;;21.80;99.90;;;;;;5013469;28;20504;-60
2023/10/20 09:18:43;;;;;;;1.70;1.60;;;21.80;99.90;;;;;;5019553;28;20478;-61
2023/10/20 09:21:10;;;;;;;3.20;1.63;;;21.80;99.90;;;;;;5014365;28;20469;-61
2023/10/20 09:23:36;;;;;;;1.73;1.40;;;21.80;99.90;;;;;;5015927;28;20480;-61
2023/10/20 09:26:04;;;;;;;3.33;1.50;;;21.80;99.90;;;;;;5019511;28;20465;-61
2023/10/20 09:28:31;;;;;;;2.40;1.80;;;21.80;99.90;;;;;;5018767;28;20532;-62
2023/10/20 09:30:59;;;;;;;2.03;1.47;;;21.80;99.90;;;;;;5020201;28;20489;-61
2023/10/20 09:33:25;;;;;;;2.20;1.57;;;21.80;99.90;;;;;;5020347;28;21232;-61
2023/10/20 09:35:54;;;;;;;2.13;1.40;;;21.80;99.90;;;;;;5017048;28;20950;-62
2023/10/20 09:38:26;;;;;;;1.50;1.27;;;21.80;99.90;;;;;;5018159;28;20458;-61
2023/10/20 09:41:11;;;;;;;1.60;1.50;;;21.80;99.90;;;;;;5019394;28;20552;-60
2023/10/20 09:43:41;;;;;;;1.93;1.50;;;21.80;99.90;;;;;;5019316;28;20481;-61
2023/10/20 09:46:20;;;;;;;1.80;1.40;;;21.80;99.90;;;;;;5019273;28;20458;-61
2023/10/20 09:48:51;;;;;;;1.90;1.50;;;21.90;99.90;;;;;;5021367;28;22909;-61
2023/10/20 09:51:20;;;;;;;1.80;1.50;;;21.90;99.90;;;;;;5017654;28;20461;-61
2023/10/20 09:53:47;;;;;;;2.47;2.07;;;21.80;99.90;;;;;;5015744;28;20454;-61
2023/10/20 09:56:15;;;;;;;1.70;1.40;;;21.90;99.90;;;;;;5019137;28;20461;-61
2023/10/20 09:58:42;;;;;;;2.60;1.93;;;21.90;99.90;;;;;;5019286;28;20755;-61
2023/10/20 10:01:08;;;;;;;1.70;1.40;;;21.90;99.90;;;;;;5021590;28;21580;-61
2023/10/20 10:03:40;;;;;;;3.07;1.43;;;21.90;99.90;;;;;;5019125;28;20779;-60
2023/10/20 10:06:11;;;;;;;1.70;1.43;;;21.90;99.90;;;;;;5020562;28;20620;-61
2023/10/20 10:08:43;;;;;;;2.40;1.70;;;21.90;99.90;;;;;;5017642;28;20789;-61
2023/10/20 10:11:21;;;;;;;3.77;1.77;;;21.90;99.90;;;;;;5017394;28;20552;-60
2023/10/20 10:13:53;;;;;;;3.23;1.60;;;21.90;99.90;;;;;;5020664;28;20452;-61
2023/10/20 10:16:21;;;;;;;2.50;1.90;;;21.90;99.90;;;;;;5017772;28;20591;-60
2023/10/20 10:18:48;;;;;;;1.60;1.50;;;21.90;99.90;;;;;;5019319;28;20459;-61
2023/10/20 10:21:30;;;;;;;1.90;1.20;;;21.90;99.90;;;;;;5018581;28;20740;-61
2023/10/20 10:24:18;;;;;;;2.33;1.83;;;21.90;99.90;;;;;;5017907;28;20484;-61
2023/10/20 10:26:46;;;;;;;1.50;1.40;;;22.00;99.90;;;;;;5017539;28;20460;-61
2023/10/20 10:29:13;;;;;;;2.83;1.73;;;21.90;99.90;;;;;;5016836;28;20470;-61
2023/10/20 10:31:40;;;;;;;2.07;1.43;;;21.90;99.90;;;;;;5015812;28;20458;-61
2023/10/20 10:34:07;;;;;;;1.73;1.50;;;21.90;99.90;;;;;;5019232;28;20484;-61
2023/10/20 10:36:43;;;;;;;1.70;1.40;;;21.90;99.90;;;;;;5016584;28;20465;-61
2023/10/20 10:39:23;;;;;;;1.67;1.13;;;21.90;99.90;;;;;;5016144;28;20990;-61
2023/10/20 10:41:52;;;;;;;1.50;1.40;;;22.10;99.90;;;;;;5016670;28;20454;-61
2023/10/20 10:44:19;;;;;;;1.73;1.27;;;22.00;99.90;;;;;;5013817;28;20596;-62
2023/10/20 10:46:47;;;;;;;1.30;1.20;;;22.00;99.90;;;;;;5013652;28;20469;-61
2023/10/20 10:49:14;;;;;;;2.00;1.83;;;22.00;99.90;;;;;;5015322;28;20461;-61
2023/10/20 10:51:45;;;;;;;1.40;1.30;;;22.00;99.90;;;;;;5015299;28;20459;-61
2023/10/20 10:54:12;;;;;;;1.90;1.40;;;22.00;99.90;;;;;;5013618;28;20549;-61
2023/10/20 10:56:41;;;;;;;1.63;1.23;;;22.00;99.90;;;;;;5012703;28;20469;-61
2023/10/20 10:59:09;;;;;;;1.53;1.13;;;22.00;99.90;;;;;;5013952;28;20489;-61
2023/10/20 11:01:37;;;;;;;1.83;1.40;;;21.90;99.90;;;;;;5014022;28;21091;-61
2023/10/20 11:04:04;;;;;;;1.47;1.20;;;22.00;99.90;;;;;;5015140;28;20508;-60
2023/10/20 11:06:33;;;;;;;1.40;1.20;;;22.00;99.90;;;;;;5015505;28;20470;-62
2023/10/20 11:09:00;;;;;;;1.40;1.10;;;22.00;99.90;;;;;;5013533;28;20581;-62
2023/10/20 11:11:27;;;;;;;2.00;1.60;;;22.00;99.90;;;;;;5014582;28;20457;-60
2023/10/20 11:13:56;;;;;;;1.83;1.70;;;22.00;99.90;;;;;;5015301;28;20820;-62
2023/10/20 11:16:23;;;;;;;1.57;1.40;;;22.00;99.90;;;;;;5008514;28;20462;-61
2023/10/20 11:18:51;;;;;;;1.43;1.30;;;22.00;99.90;;;;;;5015859;28;20473;-60
2023/10/20 11:21:18;;;;;;;3.53;1.90;;;22.10;99.90;;;;;;5016143;28;21760;-62
2023/10/20 11:23:50;;;;;;;1.50;1.40;;;22.00;99.90;;;;;;5014004;28;20478;-61
2023/10/20 11:26:17;;;;;;;3.40;1.60;;;22.00;99.90;;;;;;5017000;28;20490;-61
2023/10/20 11:28:45;;;;;;;2.73;1.40;;;22.00;99.90;;;;;;5014440;28;20499;-61
2023/10/20 11:31:13;;;;;;;1.63;1.40;;;22.00;99.90;;;;;;5015186;28;21023;-61
2023/10/20 11:33:40;;;;;;;1.40;1.10;;;22.00;99.90;;;;;;5021633;28;20813;-61
2023/10/20 11:36:07;;;;;;;2.17;1.33;;;22.00;99.90;;;;;;5020676;28;20984;-60
2023/10/20 11:38:34;;;;;;;1.50;1.40;;;22.00;99.90;;;;;;5021072;28;20457;-61
2023/10/20 11:41:01;;;;;;;2.27;1.23;;;22.00;99.90;;;;;;5015102;28;20473;-61
2023/10/20 11:43:27;;;;;;;1.73;1.17;;;22.00;99.90;;;;;;5019713;28;20480;-60
2023/10/20 11:45:54;;;;;;;3.17;1.50;;;22.00;99.90;;;;;;5018519;28;20462;-61
2023/10/20 11:48:23;;;;;;;1.60;1.50;;;22.00;99.90;;;;;;5020367;28;20472;-60
2023/10/20 11:50:50;;;;;;;1.70;1.33;;;22.00;99.90;;;;;;5014262;28;20464;-61
2023/10/20 11:53:16;;;;;;;1.30;1.20;;;22.00;99.90;;;;;;5021308;28;20454;-61
2023/10/20 11:55:43;;;;;;;1.43;1.33;;;22.00;99.90;;;;;;5019058;28;20546;-61
2023/10/20 11:58:10;;;;;;;2.13;1.40;;;22.00;99.90;;;;;;5015440;28;20557;-60
2023/10/20 12:00:41;;;;;;;2.07;1.87;;;22.10;99.90;;;;;;5020901;28;20466;-61
2023/10/20 12:03:08;;;;;;;1.27;1.10;;;22.10;99.90;;;;;;5020733;28;20478;-61
2023/10/20 12:05:37;;;;;;;1.73;1.40;;;22.00;99.90;;;;;;5017630;28;20571;-61
2023/10/20 12:08:05;;;;;;;2.60;1.17;;;22.10;99.90;;;;;;5022170;28;22132;-60
2023/10/20 12:10:32;;;;;;;1.30;1.10;;;22.10;99.90;;;;;;5020939;28;20544;-60
2023/10/20 12:13:02;;;;;;;1.57;1.20;;;22.00;99.90;;;;;;5022625;28;21230;-61
2023/10/20 12:15:29;;;;;;;1.50;1.40;;;22.10;99.90;;;;;;5018396;28;20967;-62
2023/10/20 12:17:56;;;;;;;1.20;1.03;;;22.00;99.90;;;;;;5017437;28;20454;-61
2023/10/20 12:20:22;;;;;;;1.17;1.00;;;22.00;99.90;;;;;;5019136;28;20473;-61
2023/10/20 12:22:55;;;;;;;1.70;1.43;;;22.00;99.90;;;;;;5019617;28;20477;-62
2023/10/20 12:25:21;;;;;;;1.97;1.33;;;22.00;99.90;;;;;;5017280;28;21177;-61
2023/10/20 12:27:48;;;;;;;2.03;1.03;;;22.00;99.90;;;;;;5019803;28;20462;-61
2023/10/20 12:30:15;;;;;;;1.70;1.27;;;21.90;99.90;;;;;;5019743;28;20451;-62
2023/10/20 12:32:43;;;;;;;1.10;0.90;;;22.10;99.90;;;;;;5011461;28;20461;-61
2023/10/20 12:35:11;;;;;;;1.10;0.90;;;22.10;99.90;;;;;;5018797;28;20473;-61
2023/10/20 12:37:38;;;;;;;1.30;1.13;;;22.10;99.90;;;;;;5017254;28;20647;-61
2023/10/20 12:40:07;;;;;;;1.77;1.27;;;22.10;99.90;;;;;;5016331;28;21544;-62
2023/10/20 12:42:35;;;;;;;1.50;1.40;;;22.10;99.90;;;;;;5016891;28;22546;-62
2023/10/20 12:45:04;;;;;;;1.60;1.27;;;22.10;99.90;;;;;;5014934;28;20481;-61
2023/10/20 12:47:32;;;;;;;1.40;1.30;;;22.00;99.90;;;;;;5019002;28;20449;-61
2023/10/20 12:49:59;;;;;;;1.20;1.07;;;22.10;99.90;;;;;;5020892;28;20454;-61
2023/10/20 12:52:25;;;;;;;1.30;1.10;;;22.10;99.90;;;;;;5018892;28;20461;-62
2023/10/20 12:54:52;;;;;;;1.40;1.10;;;22.00;99.90;;;;;;5017385;28;21198;-61
2023/10/20 12:57:20;;;;;;;1.40;1.20;;;22.00;99.90;;;;;;5016722;28;20461;-60
2023/10/20 12:59:47;;;;;;;1.93;1.30;;;22.10;99.90;;;;;;5015445;28;20470;-60
2023/10/20 13:02:14;;;;;;;1.10;1.00;;;22.10;99.90;;;;;;5019382;28;20479;-61
2023/10/20 13:04:41;;;;;;;1.40;1.17;;;22.00;99.90;;;;;;5016160;28;21448;-61
2023/10/20 13:07:08;;;;;;;1.50;1.40;;;22.10;99.90;;;;;;5015627;28;20809;-61
2023/10/20 13:09:35;;;;;;;1.20;1.10;;;22.10;99.90;;;;;;5018552;28;20464;-61
2023/10/20 13:12:02;;;;;;;1.20;1.10;;;22.00;99.90;;;;;;5017813;28;20818;-60